createdAt,value
2023-03-26T00:00:11.696Z,97154.63
2023-03-26T00:03:19.516Z,97148.63
2023-03-26T00:06:24.688Z,97146.31
2023-03-26T00:09:29.309Z,97152.59
2023-03-26T00:12:33.478Z,97153.56
2023-03-26T00:15:38.021Z,97161.75
2023-03-26T00:18:42.304Z,97159.50
2023-03-26T00:21:46.513Z,97154.25
2023-03-26T00:24:50.770Z,97149.19
2023-03-26T00:27:54.857Z,97137.88
2023-03-26T00:31:00.235Z,97140.56
2023-03-26T00:34:04.165Z,97160.84
2023-03-26T00:37:08.144Z,97168.53
2023-03-26T00:40:11.932Z,97186.50
2023-03-26T00:43:38.400Z,97170.38
2023-03-26T00:46:41.573Z,97141.94
2023-03-26T00:49:56.172Z,97139.31
2023-03-26T00:53:00.381Z,97149.06
2023-03-26T00:56:06.784Z,97139.84
2023-03-26T00:59:12.090Z,97143.16
2023-03-26T01:02:16.178Z,97151.13
2023-03-26T01:05:21.886Z,97152.56
2023-03-26T01:08:26.070Z,97140.50
2023-03-26T01:11:30.042Z,97122.78
2023-03-26T01:14:34.015Z,97122.72
2023-03-26T01:17:48.412Z,97107.56
2023-03-26T01:20:56.873Z,97100.84
2023-03-26T01:24:05.491Z,97082.25
2023-03-26T01:27:09.615Z,97047.69
2023-03-26T01:30:14.038Z,97042.41
2023-03-26T01:33:18.327Z,97047.25
2023-03-26T01:36:23.950Z,97053.53
2023-03-26T01:39:28.291Z,97052.91
2023-03-26T01:42:32.190Z,97056.59
2023-03-26T01:45:37.501Z,97051.00
2023-03-26T01:48:45.945Z,97049.00
2023-03-26T01:51:52.747Z,97037.63
2023-03-26T01:54:57.032Z,97022.72
2023-03-26T01:58:00.925Z,97010.94
2023-03-26T02:01:04.947Z,97006.59
2023-03-26T02:04:09.288Z,96994.72
2023-03-26T02:07:14.451Z,97005.41
2023-03-26T02:10:23.230Z,96999.91
2023-03-26T02:13:27.527Z,96998.25
2023-03-26T02:16:31.848Z,96997.63
2023-03-26T02:19:35.930Z,96996.34
2023-03-26T02:22:41.191Z,96991.56
2023-03-26T02:26:03.629Z,96995.06
2023-03-26T02:29:30.357Z,96973.38
2023-03-26T02:32:33.859Z,96973.97
2023-03-26T02:35:38.073Z,96977.59
2023-03-26T02:40:11.221Z,96957.25
2023-03-26T02:42:15.291Z,96948.81
2023-03-26T02:45:19.357Z,96946.75
2023-03-26T02:48:23.144Z,96936.66
2023-03-26T02:51:49.743Z,96932.47
2023-03-26T02:54:53.180Z,96940.03
2023-03-26T02:57:59.651Z,96935.09
2023-03-26T03:01:05.236Z,96927.31
2023-03-26T03:04:09.524Z,96905.91
2023-03-26T03:07:13.187Z,96905.56
2023-03-26T03:10:17.198Z,96903.78
2023-03-26T03:13:25.641Z,96896.34
2023-03-26T03:16:30.670Z,96887.94
2023-03-26T03:19:35.762Z,96879.66
2023-03-26T03:23:02.709Z,96881.31
2023-03-26T03:26:06.186Z,96864.97
2023-03-26T03:29:11.442Z,96853.22
2023-03-26T03:32:15.391Z,96852.47
2023-03-26T03:35:19.428Z,96844.66
2023-03-26T03:38:33.967Z,96856.56
2023-03-26T03:41:42.455Z,96838.53
2023-03-26T03:44:46.706Z,96849.75
2023-03-26T03:47:50.722Z,96838.59
2023-03-26T03:50:57.733Z,96831.44
2023-03-26T03:54:03.204Z,96823.91
2023-03-26T03:57:07.193Z,96817.84
2023-03-26T04:00:14.466Z,96818.09
2023-03-26T04:03:18.387Z,96818.03
2023-03-26T04:06:22.632Z,96809.63
2023-03-26T04:09:29.403Z,96803.31
2023-03-26T04:12:33.615Z,96805.28
2023-03-26T04:15:37.643Z,96806.47
2023-03-26T04:18:43.178Z,96795.38
2023-03-26T04:21:47.286Z,96806.97
2023-03-26T04:24:55.380Z,96795.41
2023-03-26T04:27:59.703Z,96797.59
2023-03-26T04:31:05.464Z,96789.22
2023-03-26T04:34:09.515Z,96800.41
2023-03-26T04:37:13.417Z,96801.00
2023-03-26T04:40:17.468Z,96795.97
2023-03-26T04:43:21.457Z,96794.66
2023-03-26T04:46:25.275Z,96783.56
2023-03-26T04:49:33.791Z,96771.34
2023-03-26T04:52:45.709Z,96787.38
2023-03-26T04:55:50.092Z,96795.94
2023-03-26T04:58:55.148Z,96800.81
2023-03-26T05:01:59.450Z,96790.63
2023-03-26T05:05:05.230Z,96784.75
2023-03-26T05:08:31.964Z,96790.75
2023-03-26T05:11:35.507Z,96796.16
2023-03-26T05:14:45.685Z,96810.06
2023-03-26T05:17:54.002Z,96799.50
2023-03-26T05:20:59.544Z,96796.25
2023-03-26T05:24:03.684Z,96789.84
2023-03-26T05:27:07.590Z,96762.69
2023-03-26T05:30:12.111Z,96748.84
2023-03-26T05:33:15.976Z,96733.13
2023-03-26T05:36:19.893Z,96725.25
2023-03-26T05:39:23.909Z,96737.53
2023-03-26T05:42:28.291Z,96747.41
2023-03-26T05:45:32.313Z,96734.16
2023-03-26T05:48:37.102Z,96738.00
2023-03-26T05:51:40.862Z,96735.47
2023-03-26T05:54:48.723Z,96736.69
2023-03-26T05:57:53.126Z,96749.63
2023-03-26T06:00:57.009Z,96751.84
2023-03-26T06:07:25.824Z,96769.19
2023-03-26T06:10:56.140Z,96774.81
2023-03-26T06:13:56.756Z,96795.63
2023-03-26T06:17:00.610Z,96793.53
2023-03-26T06:20:24.940Z,96795.28
2023-03-26T06:23:51.979Z,96795.13
2023-03-26T06:26:55.084Z,96784.50
2023-03-26T06:29:59.541Z,96763.06
2023-03-26T06:33:03.624Z,96772.22
2023-03-26T06:36:18.166Z,96773.91
2023-03-26T06:46:19.925Z,96767.97
2023-03-26T06:56:16.481Z,96747.47
2023-03-26T07:02:46.970Z,96747.94
2023-03-26T07:05:54.725Z,96752.03
2023-03-26T07:09:05.456Z,96743.72
2023-03-26T07:12:13.922Z,96755.41
2023-03-26T07:15:18.967Z,96747.28
2023-03-26T07:18:27.758Z,96742.13
2023-03-26T07:21:38.120Z,96734.47
2023-03-26T07:24:45.224Z,96730.13
2023-03-26T07:27:50.535Z,96720.75
2023-03-26T07:30:56.064Z,96716.31
2023-03-26T07:34:01.404Z,96723.00
2023-03-26T07:37:05.888Z,96710.47
2023-03-26T07:40:09.898Z,96712.56
2023-03-26T07:43:14.058Z,96723.47
2023-03-26T07:46:18.358Z,96721.50
2023-03-26T07:49:23.437Z,96737.88
2023-03-26T07:52:27.421Z,96753.66
2023-03-26T07:55:31.660Z,96766.38
2023-03-26T07:58:35.551Z,96770.28
2023-03-26T08:01:39.715Z,96766.72
2023-03-26T08:04:43.878Z,96749.66
2023-03-26T08:07:49.586Z,96716.25
2023-03-26T08:10:54.039Z,96694.53
2023-03-26T08:13:58.247Z,96702.19
2023-03-26T08:17:02.017Z,96736.28
2023-03-26T08:20:05.889Z,96742.28
2023-03-26T08:23:09.967Z,96739.31
2023-03-26T08:26:13.756Z,96716.84
2023-03-26T08:29:17.505Z,96716.97
2023-03-26T08:32:21.651Z,96739.19
2023-03-26T08:35:27.138Z,96758.66
2023-03-26T08:38:32.388Z,96756.91
2023-03-26T09:04:50.941Z,96736.56
2023-03-26T09:45:40.778Z,96687.19
2023-03-26T09:57:15.835Z,96681.06
2023-03-26T10:19:32.639Z,96701.41
2023-03-26T10:29:42.221Z,96711.41
2023-03-26T10:38:47.069Z,96733.31
2023-03-26T10:42:05.897Z,96727.84
2023-03-26T11:37:03.079Z,96733.47
2023-03-26T11:40:09.722Z,96730.34
2023-03-26T11:50:18.776Z,96688.53
2023-03-26T11:53:29.597Z,96688.44
2023-03-26T11:57:04.390Z,96647.66
2023-03-26T12:00:12.440Z,96622.53
2023-03-26T12:03:19.841Z,96616.91
2023-03-26T13:16:46.656Z,96637.28
2023-03-26T13:23:28.117Z,96646.09
2023-03-26T13:33:26.707Z,96655.38
2023-03-26T13:36:37.530Z,96657.53
2023-03-26T13:43:34.723Z,96661.31
2023-03-26T13:54:19.014Z,96645.53
2023-03-26T13:57:43.712Z,96642.69
2023-03-26T14:01:08.655Z,96648.97
2023-03-26T14:04:19.494Z,96650.97
2023-03-26T14:07:15.174Z,96643.47
2023-03-26T14:10:23.842Z,96649.41
2023-03-26T14:13:50.950Z,96657.72
2023-03-26T14:44:50.302Z,96670.94
2023-03-26T15:41:47.699Z,96656.34
2023-03-26T15:48:03.098Z,96638.19
2023-03-26T15:51:13.884Z,96639.78
2023-03-26T15:54:22.540Z,96625.47
2023-03-26T15:57:26.603Z,96627.59
2023-03-26T16:00:30.645Z,96629.16
2023-03-26T16:03:38.425Z,96617.66
2023-03-26T16:06:44.335Z,96618.34
2023-03-26T16:09:48.718Z,96615.44
2023-03-26T16:12:54.515Z,96613.53
2023-03-26T16:19:26.457Z,96592.69
2023-03-26T16:22:47.838Z,96596.41
2023-03-26T16:26:04.012Z,96599.81
2023-03-26T16:29:10.752Z,96587.66
2023-03-26T16:32:17.850Z,96582.41
2023-03-26T16:35:22.306Z,96577.63
2023-03-26T16:38:26.295Z,96572.25
2023-03-26T16:41:30.475Z,96568.13
2023-03-26T16:44:34.698Z,96565.72
2023-03-26T16:47:38.726Z,96558.66
2023-03-26T16:50:42.660Z,96556.94
2023-03-26T16:53:46.753Z,96565.75
2023-03-26T16:56:50.650Z,96553.44
2023-03-26T17:00:05.486Z,96562.34
2023-03-26T17:03:11.324Z,96548.75
2023-03-26T17:06:15.510Z,96555.75
2023-03-26T17:09:19.560Z,96557.97
2023-03-26T17:12:23.663Z,96545.84
2023-03-26T17:15:27.715Z,96543.91
2023-03-26T17:18:31.979Z,96539.16
2023-03-26T17:21:46.271Z,96539.06
2023-03-26T17:24:50.945Z,96532.06
2023-03-26T17:27:54.784Z,96528.47
2023-03-26T17:30:58.774Z,96538.47
2023-03-26T17:34:03.213Z,96531.19
2023-03-26T17:37:07.388Z,96535.72
2023-03-26T17:40:11.348Z,96529.66
2023-03-26T17:43:15.324Z,96532.94
2023-03-26T17:46:19.117Z,96528.75
2023-03-26T17:49:22.973Z,96525.94
2023-03-26T17:52:27.016Z,96530.06
2023-03-26T17:55:30.877Z,96520.13
2023-03-26T17:58:34.828Z,96508.38
2023-03-26T18:01:38.958Z,96510.03
2023-03-26T18:04:43.146Z,96513.50
2023-03-26T18:07:47.565Z,96525.53
2023-03-26T18:10:51.273Z,96520.41
2023-03-26T18:13:55.286Z,96521.97
2023-03-26T18:16:59.172Z,96540.53
2023-03-26T18:20:03.349Z,96564.56
2023-03-26T18:23:07.284Z,96572.69
2023-03-26T18:26:11.057Z,96583.16
2023-03-26T18:29:15.253Z,96582.34
2023-03-26T18:32:19.160Z,96571.50
2023-03-26T18:35:23.354Z,96581.97
2023-03-26T18:38:35.623Z,96575.63
2023-03-26T18:41:41.551Z,96580.78
2023-03-26T18:44:45.558Z,96573.69
2023-03-26T18:47:49.676Z,96570.91
2023-03-26T18:50:53.633Z,96569.69
2023-03-26T18:53:57.501Z,96569.09
2023-03-26T18:57:01.543Z,96566.66
2023-03-26T19:00:19.072Z,96569.09
2023-03-26T19:03:23.055Z,96556.06
2023-03-26T19:06:27.161Z,96556.44
2023-03-26T19:09:32.554Z,96552.66
2023-03-26T19:12:36.536Z,96549.84
2023-03-26T19:15:40.765Z,96544.28
2023-03-26T19:18:44.665Z,96541.97
2023-03-26T19:21:48.826Z,96543.91
2023-03-26T19:24:52.795Z,96523.59
2023-03-26T19:27:56.646Z,96522.31
2023-03-26T19:31:00.972Z,96522.84
2023-03-26T19:34:05.116Z,96519.19
2023-03-26T19:37:09.073Z,96510.75
2023-03-26T19:40:12.960Z,96510.16
2023-03-26T19:43:16.868Z,96505.94
2023-03-26T19:46:21.017Z,96514.25
2023-03-26T19:49:27.196Z,96517.34
2023-03-26T19:52:32.211Z,96513.38
2023-03-26T19:55:36.226Z,96519.78
2023-03-26T19:58:39.913Z,96508.69
2023-03-26T20:01:43.954Z,96514.63
2023-03-26T20:04:48.144Z,96512.19
2023-03-26T20:07:52.037Z,96516.00
2023-03-26T20:10:56.288Z,96523.16
2023-03-26T20:14:00.330Z,96525.03
2023-03-26T20:17:05.339Z,96525.34
2023-03-26T20:20:17.377Z,96524.78
2023-03-26T20:23:22.609Z,96531.47
2023-03-26T20:26:26.675Z,96534.53
2023-03-26T20:29:30.807Z,96533.91
2023-03-26T20:32:34.851Z,96531.72
2023-03-26T20:35:38.838Z,96534.69
2023-03-26T20:38:42.919Z,96540.47
2023-03-26T20:41:47.304Z,96537.06
2023-03-26T20:44:51.488Z,96541.75
2023-03-26T20:47:55.377Z,96549.25
2023-03-26T20:50:59.372Z,96543.25
2023-03-26T20:54:03.529Z,96549.91
2023-03-26T20:57:07.497Z,96548.75
2023-03-26T21:00:11.438Z,96549.53
2023-03-26T21:03:15.400Z,96552.00
2023-03-26T21:06:19.526Z,96559.28
2023-03-26T21:09:23.816Z,96565.44
2023-03-26T21:12:30.372Z,96566.88
2023-03-26T21:15:34.287Z,96565.88
2023-03-26T21:18:38.475Z,96577.41
2023-03-26T21:21:42.360Z,96579.91
2023-03-26T21:24:46.276Z,96589.50
2023-03-26T21:27:50.428Z,96593.66
2023-03-26T21:30:54.616Z,96599.13
2023-03-26T21:33:58.909Z,96613.94
2023-03-26T21:37:03.004Z,96618.56
2023-03-26T21:40:08.016Z,96621.78
2023-03-26T21:43:12.363Z,96631.63
2023-03-26T21:46:16.600Z,96625.47
2023-03-26T21:49:20.662Z,96629.63
2023-03-26T21:52:24.699Z,96628.66
2023-03-26T21:55:28.875Z,96630.81
2023-03-26T21:58:33.128Z,96629.88
2023-03-26T22:01:37.067Z,96636.56
2023-03-26T22:04:41.061Z,96632.94
2023-03-26T22:07:45.055Z,96650.53
2023-03-26T22:10:49.209Z,96643.72
2023-03-26T22:13:55.360Z,96647.78
2023-03-26T22:16:59.339Z,96650.88
2023-03-26T22:20:03.087Z,96666.88
2023-03-26T22:23:07.001Z,96676.69
2023-03-26T22:26:11.035Z,96675.44
2023-03-26T22:29:15.154Z,96676.78
2023-03-26T22:32:19.075Z,96684.72
2023-03-26T22:35:23.114Z,96697.28
2023-03-26T22:38:27.096Z,96700.03
2023-03-26T22:41:31.120Z,96709.34
2023-03-26T22:44:34.887Z,96727.41
2023-03-26T22:47:40.972Z,96732.81
2023-03-26T22:50:44.625Z,96743.66
2023-03-26T22:53:49.007Z,96740.03
2023-03-26T22:56:53.172Z,96729.47
2023-03-26T22:59:57.184Z,96748.00
2023-03-26T23:03:01.317Z,96757.31
2023-03-26T23:06:05.205Z,96754.53
2023-03-26T23:09:09.358Z,96766.66
2023-03-26T23:12:13.514Z,96775.53
2023-03-26T23:15:17.414Z,96768.63
2023-03-26T23:18:21.690Z,96763.78
2023-03-26T23:21:25.985Z,96779.84
2023-03-26T23:24:30.221Z,96774.72
2023-03-26T23:27:34.273Z,96776.97
2023-03-26T23:30:38.272Z,96787.06
2023-03-26T23:33:42.192Z,96788.78
2023-03-26T23:36:46.220Z,96803.91
2023-03-26T23:39:50.192Z,96814.41
2023-03-26T23:42:53.979Z,96818.09
2023-03-26T23:45:59.706Z,96824.25
2023-03-26T23:49:03.854Z,96818.53
2023-03-26T23:52:07.726Z,96821.13
2023-03-26T23:55:11.741Z,96822.31
2023-03-26T23:58:15.504Z,96827.50
